sensor_id;sensor_type;location;lat;lon;timestamp;P1;durP1;ratioP1;P2;durP2;ratioP2
16957;SDS011;8595;52.542;11.974;2023-04-25T00:00:26;8.30;;;4.20;;
16957;SDS011;8595;52.542;11.974;2023-04-25T00:02:54;9.60;;;4.60;;
16957;SDS011;8595;52.542;11.974;2023-04-25T00:05:23;9.43;;;4.97;;
16957;SDS011;8595;52.542;11.974;2023-04-25T00:07:50;7.60;;;4.55;;
16957;SDS011;8595;52.542;11.974;2023-04-25T00:10:17;8.90;;;4.47;;
16957;SDS011;8595;52.542;11.974;2023-04-25T00:12:47;11.68;;;5.03;;
16957;SDS011;8595;52.542;11.974;2023-04-25T00:15:14;14.30;;;5.05;;
16957;SDS011;8595;52.542;11.974;2023-04-25T00:17:41;8.93;;;4.82;;
16957;SDS011;8595;52.542;11.974;2023-04-25T00:20:09;10.30;;;4.87;;
16957;SDS011;8595;52.542;11.974;2023-04-25T00:22:37;9.10;;;4.95;;
16957;SDS011;8595;52.542;11.974;2023-04-25T00:25:04;10.27;;;4.97;;
16957;SDS011;8595;52.542;11.974;2023-04-25T00:27:32;5.28;;;4.65;;
16957;SDS011;8595;52.542;11.974;2023-04-25T00:29:59;11.63;;;4.93;;
16957;SDS011;8595;52.542;11.974;2023-04-25T00:32:26;8.70;;;4.47;;
16957;SDS011;8595;52.542;11.974;2023-04-25T00:34:52;6.57;;;4.50;;
16957;SDS011;8595;52.542;11.974;2023-04-25T00:37:22;9.00;;;4.88;;
16957;SDS011;8595;52.542;11.974;2023-04-25T00:39:48;10.27;;;5.32;;
16957;SDS011;8595;52.542;11.974;2023-04-25T00:42:15;11.90;;;5.15;;
16957;SDS011;8595;52.542;11.974;2023-04-25T00:44:43;7.38;;;4.68;;
16957;SDS011;8595;52.542;11.974;2023-04-25T00:47:11;11.45;;;5.55;;
16957;SDS011;8595;52.542;11.974;2023-04-25T00:49:37;12.93;;;5.10;;
16957;SDS011;8595;52.542;11.974;2023-04-25T00:52:04;12.25;;;5.53;;
16957;SDS011;8595;52.542;11.974;2023-04-25T00:54:32;9.93;;;4.85;;
16957;SDS011;8595;52.542;11.974;2023-04-25T00:56:59;9.00;;;4.85;;
16957;SDS011;8595;52.542;11.974;2023-04-25T00:59:27;12.40;;;5.45;;
16957;SDS011;8595;52.542;11.974;2023-04-25T01:01:55;11.10;;;5.60;;
16957;SDS011;8595;52.542;11.974;2023-04-25T01:04:23;10.40;;;4.68;;
16957;SDS011;8595;52.542;11.974;2023-04-25T01:06:53;10.55;;;5.93;;
16957;SDS011;8595;52.542;11.974;2023-04-25T01:09:20;9.93;;;5.50;;
16957;SDS011;8595;52.542;11.974;2023-04-25T01:11:49;10.63;;;5.80;;
16957;SDS011;8595;52.542;11.974;2023-04-25T01:14:16;9.85;;;5.55;;
16957;SDS011;8595;52.542;11.974;2023-04-25T01:16:44;12.43;;;5.88;;
16957;SDS011;8595;52.542;11.974;2023-04-25T01:19:11;10.70;;;6.00;;
16957;SDS011;8595;52.542;11.974;2023-04-25T01:21:40;15.45;;;6.05;;
16957;SDS011;8595;52.542;11.974;2023-04-25T01:24:07;10.18;;;5.70;;
16957;SDS011;8595;52.542;11.974;2023-04-25T01:26:34;14.52;;;6.85;;
16957;SDS011;8595;52.542;11.974;2023-04-25T01:29:01;13.00;;;6.60;;
16957;SDS011;8595;52.542;11.974;2023-04-25T01:31:29;13.57;;;7.03;;
16957;SDS011;8595;52.542;11.974;2023-04-25T01:33:57;14.43;;;6.35;;
16957;SDS011;8595;52.542;11.974;2023-04-25T01:36:24;11.57;;;5.95;;
16957;SDS011;8595;52.542;11.974;2023-04-25T01:38:53;12.13;;;6.70;;
16957;SDS011;8595;52.542;11.974;2023-04-25T01:41:20;11.75;;;6.47;;
16957;SDS011;8595;52.542;11.974;2023-04-25T01:43:48;13.93;;;7.40;;
16957;SDS011;8595;52.542;11.974;2023-04-25T01:46:14;13.77;;;6.45;;
16957;SDS011;8595;52.542;11.974;2023-04-25T01:48:41;9.35;;;5.57;;
16957;SDS011;8595;52.542;11.974;2023-04-25T01:51:08;12.68;;;6.57;;
16957;SDS011;8595;52.542;11.974;2023-04-25T01:53:36;14.55;;;6.90;;
16957;SDS011;8595;52.542;11.974;2023-04-25T01:56:05;9.55;;;6.20;;
16957;SDS011;8595;52.542;11.974;2023-04-25T01:58:32;13.05;;;6.60;;
16957;SDS011;8595;52.542;11.974;2023-04-25T02:01:00;9.77;;;6.68;;
16957;SDS011;8595;52.542;11.974;2023-04-25T02:03:26;9.32;;;5.57;;
16957;SDS011;8595;52.542;11.974;2023-04-25T02:05:53;10.30;;;5.78;;
16957;SDS011;8595;52.542;11.974;2023-04-25T02:08:20;10.10;;;5.85;;
16957;SDS011;8595;52.542;11.974;2023-04-25T02:10:47;12.70;;;6.22;;
16957;SDS011;8595;52.542;11.974;2023-04-25T02:13:15;12.65;;;7.25;;
16957;SDS011;8595;52.542;11.974;2023-04-25T02:15:41;10.65;;;5.57;;
16957;SDS011;8595;52.542;11.974;2023-04-25T02:18:08;8.73;;;6.07;;
16957;SDS011;8595;52.542;11.974;2023-04-25T02:20:37;15.18;;;6.20;;
16957;SDS011;8595;52.542;11.974;2023-04-25T02:23:04;8.43;;;5.28;;
16957;SDS011;8595;52.542;11.974;2023-04-25T02:25:31;12.00;;;5.47;;
16957;SDS011;8595;52.542;11.974;2023-04-25T02:28:00;11.40;;;6.57;;
16957;SDS011;8595;52.542;11.974;2023-04-25T02:30:28;12.43;;;6.15;;
16957;SDS011;8595;52.542;11.974;2023-04-25T02:32:58;10.45;;;5.45;;
16957;SDS011;8595;52.542;11.974;2023-04-25T02:35:25;9.65;;;5.43;;
16957;SDS011;8595;52.542;11.974;2023-04-25T02:37:52;10.05;;;5.82;;
16957;SDS011;8595;52.542;11.974;2023-04-25T02:40:18;11.55;;;5.35;;
16957;SDS011;8595;52.542;11.974;2023-04-25T02:42:45;11.45;;;5.72;;
16957;SDS011;8595;52.542;11.974;2023-04-25T02:45:12;8.38;;;5.60;;
16957;SDS011;8595;52.542;11.974;2023-04-25T02:47:40;10.98;;;5.47;;
16957;SDS011;8595;52.542;11.974;2023-04-25T02:50:07;15.70;;;6.32;;
16957;SDS011;8595;52.542;11.974;2023-04-25T02:52:34;14.80;;;6.75;;
16957;SDS011;8595;52.542;11.974;2023-04-25T02:55:01;11.23;;;5.93;;
16957;SDS011;8595;52.542;11.974;2023-04-25T02:57:27;7.88;;;6.20;;
16957;SDS011;8595;52.542;11.974;2023-04-25T02:59:54;16.80;;;6.75;;
16957;SDS011;8595;52.542;11.974;2023-04-25T03:02:21;12.45;;;5.80;;
16957;SDS011;8595;52.542;11.974;2023-04-25T03:04:49;15.18;;;6.65;;
16957;SDS011;8595;52.542;11.974;2023-04-25T03:07:16;11.02;;;6.97;;
16957;SDS011;8595;52.542;11.974;2023-04-25T03:09:42;13.88;;;6.40;;
16957;SDS011;8595;52.542;11.974;2023-04-25T03:12:10;14.95;;;7.72;;
16957;SDS011;8595;52.542;11.974;2023-04-25T03:14:36;12.55;;;7.05;;
16957;SDS011;8595;52.542;11.974;2023-04-25T03:17:03;14.38;;;7.97;;
16957;SDS011;8595;52.542;11.974;2023-04-25T03:19:30;12.40;;;7.43;;
16957;SDS011;8595;52.542;11.974;2023-04-25T03:21:58;12.70;;;6.93;;
16957;SDS011;8595;52.542;11.974;2023-04-25T03:24:25;18.00;;;7.90;;
16957;SDS011;8595;52.542;11.974;2023-04-25T03:26:52;17.02;;;7.50;;
16957;SDS011;8595;52.542;11.974;2023-04-25T03:29:19;15.90;;;7.57;;
16957;SDS011;8595;52.542;11.974;2023-04-25T03:31:49;20.77;;;8.18;;
16957;SDS011;8595;52.542;11.974;2023-04-25T03:34:16;18.65;;;8.23;;
16957;SDS011;8595;52.542;11.974;2023-04-25T03:36:43;19.20;;;9.13;;
16957;SDS011;8595;52.542;11.974;2023-04-25T03:39:12;21.33;;;9.23;;
16957;SDS011;8595;52.542;11.974;2023-04-25T03:41:39;15.98;;;8.05;;
16957;SDS011;8595;52.542;11.974;2023-04-25T03:44:05;15.77;;;8.88;;
16957;SDS011;8595;52.542;11.974;2023-04-25T03:46:32;20.30;;;8.90;;
16957;SDS011;8595;52.542;11.974;2023-04-25T03:48:59;16.52;;;9.45;;
16957;SDS011;8595;52.542;11.974;2023-04-25T03:51:25;17.05;;;9.85;;
16957;SDS011;8595;52.542;11.974;2023-04-25T03:53:52;19.10;;;9.20;;
16957;SDS011;8595;52.542;11.974;2023-04-25T03:56:20;21.67;;;9.95;;
16957;SDS011;8595;52.542;11.974;2023-04-25T03:58:47;14.38;;;9.43;;
16957;SDS011;8595;52.542;11.974;2023-04-25T04:01:14;12.52;;;8.70;;
16957;SDS011;8595;52.542;11.974;2023-04-25T04:03:42;18.88;;;10.15;;
16957;SDS011;8595;52.542;11.974;2023-04-25T04:06:08;19.73;;;10.35;;
16957;SDS011;8595;52.542;11.974;2023-04-25T04:08:36;15.93;;;9.57;;
16957;SDS011;8595;52.542;11.974;2023-04-25T04:11:03;21.58;;;10.45;;
16957;SDS011;8595;52.542;11.974;2023-04-25T04:13:31;19.27;;;10.13;;
16957;SDS011;8595;52.542;11.974;2023-04-25T04:15:58;16.40;;;9.60;;
16957;SDS011;8595;52.542;11.974;2023-04-25T04:18:25;15.25;;;9.52;;
16957;SDS011;8595;52.542;11.974;2023-04-25T04:20:51;21.52;;;10.65;;
16957;SDS011;8595;52.542;11.974;2023-04-25T04:23:18;22.48;;;11.18;;
16957;SDS011;8595;52.542;11.974;2023-04-25T04:25:46;26.25;;;9.88;;
16957;SDS011;8595;52.542;11.974;2023-04-25T04:28:12;21.67;;;9.27;;
16957;SDS011;8595;52.542;11.974;2023-04-25T04:30:42;18.52;;;9.90;;
16957;SDS011;8595;52.542;11.974;2023-04-25T04:33:10;16.98;;;10.20;;
16957;SDS011;8595;52.542;11.974;2023-04-25T04:35:37;18.38;;;10.52;;
16957;SDS011;8595;52.542;11.974;2023-04-25T04:38:05;17.65;;;10.23;;
16957;SDS011;8595;52.542;11.974;2023-04-25T04:40:32;18.35;;;10.57;;
16957;SDS011;8595;52.542;11.974;2023-04-25T04:42:59;14.80;;;9.57;;
16957;SDS011;8595;52.542;11.974;2023-04-25T04:45:26;17.67;;;10.30;;
16957;SDS011;8595;52.542;11.974;2023-04-25T04:47:55;20.33;;;10.77;;
16957;SDS011;8595;52.542;11.974;2023-04-25T04:50:21;19.00;;;10.43;;
16957;SDS011;8595;52.542;11.974;2023-04-25T04:52:48;20.73;;;11.30;;
16957;SDS011;8595;52.542;11.974;2023-04-25T04:55:15;21.08;;;11.23;;
16957;SDS011;8595;52.542;11.974;2023-04-25T04:57:42;16.33;;;11.30;;
16957;SDS011;8595;52.542;11.974;2023-04-25T05:00:09;18.50;;;10.15;;
16957;SDS011;8595;52.542;11.974;2023-04-25T05:02:37;21.97;;;11.63;;
16957;SDS011;8595;52.542;11.974;2023-04-25T05:05:06;21.70;;;9.82;;
16957;SDS011;8595;52.542;11.974;2023-04-25T05:07:33;25.37;;;11.60;;
16957;SDS011;8595;52.542;11.974;2023-04-25T05:10:00;17.30;;;9.57;;
16957;SDS011;8595;52.542;11.974;2023-04-25T05:12:27;17.80;;;11.30;;
16957;SDS011;8595;52.542;11.974;2023-04-25T05:14:55;16.83;;;10.07;;
16957;SDS011;8595;52.542;11.974;2023-04-25T05:17:22;19.85;;;8.80;;
16957;SDS011;8595;52.542;11.974;2023-04-25T05:19:48;19.87;;;9.23;;
16957;SDS011;8595;52.542;11.974;2023-04-25T05:22:16;18.92;;;8.88;;
16957;SDS011;8595;52.542;11.974;2023-04-25T05:24:43;19.77;;;7.97;;
16957;SDS011;8595;52.542;11.974;2023-04-25T05:27:10;18.83;;;8.15;;
16957;SDS011;8595;52.542;11.974;2023-04-25T05:29:36;16.43;;;7.93;;
16957;SDS011;8595;52.542;11.974;2023-04-25T05:32:04;15.80;;;7.85;;
16957;SDS011;8595;52.542;11.974;2023-04-25T05:34:32;21.58;;;8.30;;
16957;SDS011;8595;52.542;11.974;2023-04-25T05:36:59;13.13;;;7.35;;
16957;SDS011;8595;52.542;11.974;2023-04-25T05:39:28;25.65;;;8.35;;
16957;SDS011;8595;52.542;11.974;2023-04-25T05:41:55;30.57;;;8.93;;
16957;SDS011;8595;52.542;11.974;2023-04-25T05:44:21;27.83;;;9.10;;
16957;SDS011;8595;52.542;11.974;2023-04-25T05:46:48;21.80;;;7.53;;
16957;SDS011;8595;52.542;11.974;2023-04-25T05:49:15;19.33;;;7.97;;
16957;SDS011;8595;52.542;11.974;2023-04-25T05:51:42;17.73;;;6.85;;
16957;SDS011;8595;52.542;11.974;2023-04-25T05:54:08;19.60;;;6.80;;
16957;SDS011;8595;52.542;11.974;2023-04-25T05:56:37;16.23;;;6.03;;
16957;SDS011;8595;52.542;11.974;2023-04-25T05:59:03;16.58;;;5.63;;
16957;SDS011;8595;52.542;11.974;2023-04-25T06:01:31;22.05;;;6.28;;
16957;SDS011;8595;52.542;11.974;2023-04-25T06:03:57;23.77;;;6.70;;
16957;SDS011;8595;52.542;11.974;2023-04-25T06:06:25;20.92;;;6.82;;
16957;SDS011;8595;52.542;11.974;2023-04-25T06:08:52;20.02;;;6.65;;
16957;SDS011;8595;52.542;11.974;2023-04-25T06:11:19;22.38;;;7.13;;
16957;SDS011;8595;52.542;11.974;2023-04-25T06:13:47;17.67;;;5.93;;
16957;SDS011;8595;52.542;11.974;2023-04-25T06:16:14;22.77;;;7.05;;
16957;SDS011;8595;52.542;11.974;2023-04-25T06:18:41;18.58;;;6.18;;
16957;SDS011;8595;52.542;11.974;2023-04-25T06:21:07;21.33;;;5.75;;
16957;SDS011;8595;52.542;11.974;2023-04-25T06:23:36;20.27;;;6.50;;
16957;SDS011;8595;52.542;11.974;2023-04-25T06:26:03;17.63;;;6.30;;
16957;SDS011;8595;52.542;11.974;2023-04-25T06:28:30;23.10;;;6.18;;
16957;SDS011;8595;52.542;11.974;2023-04-25T06:30:58;16.25;;;6.32;;
16957;SDS011;8595;52.542;11.974;2023-04-25T06:33:25;20.98;;;5.97;;
16957;SDS011;8595;52.542;11.974;2023-04-25T06:35:51;22.95;;;6.75;;
16957;SDS011;8595;52.542;11.974;2023-04-25T06:38:19;18.40;;;5.22;;
16957;SDS011;8595;52.542;11.974;2023-04-25T06:40:46;23.70;;;9.95;;
16957;SDS011;8595;52.542;11.974;2023-04-25T06:43:13;20.73;;;6.70;;
16957;SDS011;8595;52.542;11.974;2023-04-25T06:45:40;19.38;;;5.43;;
16957;SDS011;8595;52.542;11.974;2023-04-25T06:48:09;17.75;;;5.70;;
16957;SDS011;8595;52.542;11.974;2023-04-25T06:50:35;22.98;;;5.45;;
16957;SDS011;8595;52.542;11.974;2023-04-25T06:53:02;25.15;;;6.32;;
16957;SDS011;8595;52.542;11.974;2023-04-25T06:55:29;20.35;;;5.55;;
16957;SDS011;8595;52.542;11.974;2023-04-25T06:57:56;14.63;;;5.80;;
16957;SDS011;8595;52.542;11.974;2023-04-25T07:03:58;18.00;;;5.53;;
16957;SDS011;8595;52.542;11.974;2023-04-25T07:06:25;18.52;;;6.05;;
16957;SDS011;8595;52.542;11.974;2023-04-25T07:08:52;19.02;;;5.53;;
16957;SDS011;8595;52.542;11.974;2023-04-25T07:11:19;18.70;;;5.40;;
16957;SDS011;8595;52.542;11.974;2023-04-25T07:13:46;26.17;;;6.07;;
16957;SDS011;8595;52.542;11.974;2023-04-25T07:16:13;21.55;;;5.38;;
16957;SDS011;8595;52.542;11.974;2023-04-25T07:18:39;28.20;;;7.22;;
16957;SDS011;8595;52.542;11.974;2023-04-25T07:21:08;15.07;;;5.15;;
16957;SDS011;8595;52.542;11.974;2023-04-25T07:23:34;17.85;;;4.40;;
16957;SDS011;8595;52.542;11.974;2023-04-25T07:26:02;17.45;;;4.60;;
16957;SDS011;8595;52.542;11.974;2023-04-25T07:28:29;20.30;;;6.32;;
16957;SDS011;8595;52.542;11.974;2023-04-25T07:30:56;24.58;;;10.35;;
16957;SDS011;8595;52.542;11.974;2023-04-25T07:33:23;20.92;;;4.78;;
16957;SDS011;8595;52.542;11.974;2023-04-25T07:35:50;16.00;;;4.85;;
16957;SDS011;8595;52.542;11.974;2023-04-25T07:38:18;7.55;;;3.90;;
16957;SDS011;8595;52.542;11.974;2023-04-25T07:40:45;13.27;;;4.25;;
16957;SDS011;8595;52.542;11.974;2023-04-25T07:43:14;11.60;;;3.67;;
16957;SDS011;8595;52.542;11.974;2023-04-25T07:45:42;15.13;;;4.75;;
16957;SDS011;8595;52.542;11.974;2023-04-25T07:48:09;14.25;;;4.20;;
16957;SDS011;8595;52.542;11.974;2023-04-25T07:50:36;14.65;;;4.68;;
16957;SDS011;8595;52.542;11.974;2023-04-25T07:53:02;13.02;;;4.68;;
16957;SDS011;8595;52.542;11.974;2023-04-25T07:55:31;13.20;;;3.90;;
16957;SDS011;8595;52.542;11.974;2023-04-25T07:57:57;14.70;;;5.65;;
16957;SDS011;8595;52.542;11.974;2023-04-25T08:00:24;16.27;;;5.53;;
16957;SDS011;8595;52.542;11.974;2023-04-25T08:02:51;16.95;;;5.32;;
16957;SDS011;8595;52.542;11.974;2023-04-25T08:05:18;19.02;;;4.93;;
16957;SDS011;8595;52.542;11.974;2023-04-25T08:07:44;18.10;;;5.07;;
16957;SDS011;8595;52.542;11.974;2023-04-25T08:10:11;10.82;;;4.30;;
16957;SDS011;8595;52.542;11.974;2023-04-25T08:12:39;17.50;;;4.25;;
16957;SDS011;8595;52.542;11.974;2023-04-25T08:15:06;17.42;;;4.82;;
16957;SDS011;8595;52.542;11.974;2023-04-25T08:17:34;10.07;;;4.13;;
16957;SDS011;8595;52.542;11.974;2023-04-25T08:20:01;11.90;;;4.38;;
16957;SDS011;8595;52.542;11.974;2023-04-25T08:22:30;17.13;;;4.10;;
16957;SDS011;8595;52.542;11.974;2023-04-25T08:24:58;22.50;;;8.98;;
16957;SDS011;8595;52.542;11.974;2023-04-25T08:27:25;15.13;;;4.97;;
16957;SDS011;8595;52.542;11.974;2023-04-25T08:29:53;10.85;;;3.60;;
16957;SDS011;8595;52.542;11.974;2023-04-25T08:32:23;12.48;;;3.83;;
16957;SDS011;8595;52.542;11.974;2023-04-25T08:34:50;12.70;;;3.97;;
16957;SDS011;8595;52.542;11.974;2023-04-25T08:37:19;15.73;;;4.18;;
16957;SDS011;8595;52.542;11.974;2023-04-25T08:39:45;11.18;;;4.18;;
16957;SDS011;8595;52.542;11.974;2023-04-25T08:42:13;15.45;;;4.85;;
16957;SDS011;8595;52.542;11.974;2023-04-25T08:44:41;18.80;;;4.63;;
16957;SDS011;8595;52.542;11.974;2023-04-25T08:47:10;13.85;;;4.68;;
16957;SDS011;8595;52.542;11.974;2023-04-25T08:49:37;13.50;;;4.22;;
16957;SDS011;8595;52.542;11.974;2023-04-25T08:52:05;10.98;;;4.25;;
16957;SDS011;8595;52.542;11.974;2023-04-25T08:54:35;13.70;;;4.13;;
16957;SDS011;8595;52.542;11.974;2023-04-25T08:57:03;12.05;;;4.18;;
16957;SDS011;8595;52.542;11.974;2023-04-25T08:59:30;15.63;;;4.43;;
16957;SDS011;8595;52.542;11.974;2023-04-25T09:01:58;10.90;;;4.28;;
16957;SDS011;8595;52.542;11.974;2023-04-25T09:04:26;14.95;;;7.45;;
16957;SDS011;8595;52.542;11.974;2023-04-25T09:06:53;13.65;;;4.50;;
16957;SDS011;8595;52.542;11.974;2023-04-25T09:09:20;11.32;;;3.92;;
16957;SDS011;8595;52.542;11.974;2023-04-25T09:11:46;10.20;;;3.70;;
16957;SDS011;8595;52.542;11.974;2023-04-25T09:14:14;12.30;;;4.28;;
16957;SDS011;8595;52.542;11.974;2023-04-25T09:19:30;12.90;;;4.82;;
16957;SDS011;8595;52.542;11.974;2023-04-25T09:21:59;13.40;;;3.63;;
16957;SDS011;8595;52.542;11.974;2023-04-25T09:24:31;8.50;;;3.95;;
16957;SDS011;8595;52.542;11.974;2023-04-25T09:26:58;12.57;;;3.85;;
16957;SDS011;8595;52.542;11.974;2023-04-25T09:29:29;12.40;;;3.97;;
16957;SDS011;8595;52.542;11.974;2023-04-25T09:32:14;11.15;;;3.47;;
16957;SDS011;8595;52.542;11.974;2023-04-25T09:34:46;12.27;;;3.50;;
16957;SDS011;8595;52.542;11.974;2023-04-25T09:37:17;11.70;;;3.60;;
16957;SDS011;8595;52.542;11.974;2023-04-25T09:39:45;7.03;;;3.17;;
16957;SDS011;8595;52.542;11.974;2023-04-25T09:42:13;8.85;;;3.53;;
16957;SDS011;8595;52.542;11.974;2023-04-25T09:44:42;10.52;;;3.70;;
16957;SDS011;8595;52.542;11.974;2023-04-25T09:47:09;7.15;;;3.42;;
16957;SDS011;8595;52.542;11.974;2023-04-25T09:49:38;9.25;;;3.50;;
16957;SDS011;8595;52.542;11.974;2023-04-25T09:52:08;10.25;;;3.25;;
16957;SDS011;8595;52.542;11.974;2023-04-25T09:54:36;16.23;;;3.88;;
16957;SDS011;8595;52.542;11.974;2023-04-25T09:57:05;11.15;;;3.38;;
16957;SDS011;8595;52.542;11.974;2023-04-25T09:59:38;6.78;;;3.22;;
16957;SDS011;8595;52.542;11.974;2023-04-25T10:02:06;7.68;;;3.33;;
16957;SDS011;8595;52.542;11.974;2023-04-25T10:04:34;6.95;;;2.80;;
16957;SDS011;8595;52.542;11.974;2023-04-25T10:07:02;12.00;;;3.75;;
16957;SDS011;8595;52.542;11.974;2023-04-25T10:09:32;10.25;;;3.17;;
16957;SDS011;8595;52.542;11.974;2023-04-25T10:12:02;10.88;;;3.88;;
16957;SDS011;8595;52.542;11.974;2023-04-25T10:14:29;11.43;;;3.40;;
16957;SDS011;8595;52.542;11.974;2023-04-25T10:16:57;9.38;;;3.17;;
16957;SDS011;8595;52.542;11.974;2023-04-25T10:19:25;8.55;;;3.35;;
16957;SDS011;8595;52.542;11.974;2023-04-25T10:21:55;11.20;;;3.28;;
16957;SDS011;8595;52.542;11.974;2023-04-25T10:24:28;8.73;;;2.67;;
16957;SDS011;8595;52.542;11.974;2023-04-25T10:26:56;8.45;;;3.17;;
16957;SDS011;8595;52.542;11.974;2023-04-25T10:29:25;13.35;;;3.55;;
16957;SDS011;8595;52.542;11.974;2023-04-25T10:31:52;7.95;;;3.38;;
16957;SDS011;8595;52.542;11.974;2023-04-25T10:34:19;12.25;;;4.28;;
16957;SDS011;8595;52.542;11.974;2023-04-25T10:36:51;17.63;;;3.88;;
16957;SDS011;8595;52.542;11.974;2023-04-25T10:39:22;9.07;;;3.00;;
16957;SDS011;8595;52.542;11.974;2023-04-25T10:41:53;13.63;;;3.72;;
16957;SDS011;8595;52.542;11.974;2023-04-25T10:44:23;6.40;;;3.10;;
16957;SDS011;8595;52.542;11.974;2023-04-25T10:46:54;12.88;;;3.67;;
16957;SDS011;8595;52.542;11.974;2023-04-25T10:49:29;10.27;;;3.70;;
16957;SDS011;8595;52.542;11.974;2023-04-25T10:52:13;9.45;;;3.60;;
16957;SDS011;8595;52.542;11.974;2023-04-25T10:54:41;9.52;;;3.25;;
16957;SDS011;8595;52.542;11.974;2023-04-25T10:59:54;8.05;;;3.80;;
16957;SDS011;8595;52.542;11.974;2023-04-25T11:02:25;10.95;;;4.07;;
16957;SDS011;8595;52.542;11.974;2023-04-25T11:04:53;12.75;;;3.85;;
16957;SDS011;8595;52.542;11.974;2023-04-25T11:07:23;12.27;;;3.30;;
16957;SDS011;8595;52.542;11.974;2023-04-25T11:09:55;8.90;;;3.67;;
16957;SDS011;8595;52.542;11.974;2023-04-25T11:12:21;7.82;;;4.00;;
16957;SDS011;8595;52.542;11.974;2023-04-25T11:14:50;10.25;;;3.65;;
16957;SDS011;8595;52.542;11.974;2023-04-25T11:17:26;13.18;;;4.22;;
16957;SDS011;8595;52.542;11.974;2023-04-25T11:19:55;16.63;;;3.63;;
16957;SDS011;8595;52.542;11.974;2023-04-25T11:22:22;9.35;;;4.03;;
16957;SDS011;8595;52.542;11.974;2023-04-25T11:24:49;8.23;;;3.53;;
16957;SDS011;8595;52.542;11.974;2023-04-25T11:27:16;11.68;;;3.80;;
16957;SDS011;8595;52.542;11.974;2023-04-25T11:29:43;11.43;;;4.30;;
16957;SDS011;8595;52.542;11.974;2023-04-25T11:32:11;10.07;;;4.03;;
16957;SDS011;8595;52.542;11.974;2023-04-25T11:34:37;11.10;;;4.00;;
16957;SDS011;8595;52.542;11.974;2023-04-25T11:37:04;16.77;;;4.20;;
16957;SDS011;8595;52.542;11.974;2023-04-25T11:39:32;14.13;;;4.07;;
16957;SDS011;8595;52.542;11.974;2023-04-25T11:41:59;13.00;;;4.20;;
16957;SDS011;8595;52.542;11.974;2023-04-25T11:44:26;10.68;;;3.70;;
16957;SDS011;8595;52.542;11.974;2023-04-25T11:46:54;9.40;;;4.03;;
16957;SDS011;8595;52.542;11.974;2023-04-25T11:49:22;8.95;;;3.92;;
16957;SDS011;8595;52.542;11.974;2023-04-25T11:51:50;9.85;;;3.80;;
16957;SDS011;8595;52.542;11.974;2023-04-25T11:54:17;7.28;;;4.10;;
16957;SDS011;8595;52.542;11.974;2023-04-25T11:56:43;8.57;;;3.25;;
16957;SDS011;8595;52.542;11.974;2023-04-25T11:59:11;12.20;;;3.63;;
16957;SDS011;8595;52.542;11.974;2023-04-25T12:01:39;12.52;;;3.97;;
16957;SDS011;8595;52.542;11.974;2023-04-25T12:04:10;7.90;;;3.72;;
16957;SDS011;8595;52.542;11.974;2023-04-25T12:06:39;11.43;;;3.75;;
16957;SDS011;8595;52.542;11.974;2023-04-25T12:09:07;10.00;;;3.17;;
16957;SDS011;8595;52.542;11.974;2023-04-25T12:11:40;7.25;;;3.50;;
16957;SDS011;8595;52.542;11.974;2023-04-25T12:14:08;6.80;;;3.20;;
16957;SDS011;8595;52.542;11.974;2023-04-25T12:16:41;11.48;;;4.00;;
16957;SDS011;8595;52.542;11.974;2023-04-25T12:19:08;9.50;;;3.70;;
16957;SDS011;8595;52.542;11.974;2023-04-25T12:21:35;12.43;;;3.80;;
16957;SDS011;8595;52.542;11.974;2023-04-25T12:24:10;10.27;;;4.30;;
16957;SDS011;8595;52.542;11.974;2023-04-25T12:26:48;11.68;;;3.80;;
16957;SDS011;8595;52.542;11.974;2023-04-25T12:29:20;7.30;;;3.80;;
16957;SDS011;8595;52.542;11.974;2023-04-25T12:31:49;8.77;;;3.80;;
16957;SDS011;8595;52.542;11.974;2023-04-25T12:34:17;10.40;;;4.28;;
16957;SDS011;8595;52.542;11.974;2023-04-25T12:36:44;9.30;;;3.70;;
16957;SDS011;8595;52.542;11.974;2023-04-25T12:39:15;13.77;;;4.05;;
16957;SDS011;8595;52.542;11.974;2023-04-25T12:41:42;11.75;;;3.67;;
16957;SDS011;8595;52.542;11.974;2023-04-25T12:44:09;7.60;;;3.75;;
16957;SDS011;8595;52.542;11.974;2023-04-25T12:46:36;18.10;;;3.60;;
16957;SDS011;8595;52.542;11.974;2023-04-25T12:49:03;8.52;;;3.70;;
16957;SDS011;8595;52.542;11.974;2023-04-25T12:51:32;9.55;;;3.15;;
16957;SDS011;8595;52.542;11.974;2023-04-25T12:53:59;9.05;;;3.00;;
16957;SDS011;8595;52.542;11.974;2023-04-25T12:56:27;8.38;;;3.65;;
16957;SDS011;8595;52.542;11.974;2023-04-25T12:58:54;6.45;;;3.10;;
16957;SDS011;8595;52.542;11.974;2023-04-25T13:01:21;7.30;;;2.85;;
16957;SDS011;8595;52.542;11.974;2023-04-25T13:03:47;9.05;;;2.90;;
16957;SDS011;8595;52.542;11.974;2023-04-25T13:06:14;7.18;;;2.58;;
16957;SDS011;8595;52.542;11.974;2023-04-25T13:08:42;7.20;;;2.78;;
16957;SDS011;8595;52.542;11.974;2023-04-25T13:11:09;13.00;;;4.65;;
16957;SDS011;8595;52.542;11.974;2023-04-25T13:13:38;17.88;;;3.60;;
16957;SDS011;8595;52.542;11.974;2023-04-25T13:16:05;7.28;;;2.90;;
16957;SDS011;8595;52.542;11.974;2023-04-25T13:18:33;13.40;;;4.82;;
16957;SDS011;8595;52.542;11.974;2023-04-25T13:21:00;8.45;;;3.55;;
16957;SDS011;8595;52.542;11.974;2023-04-25T13:23:27;7.20;;;3.25;;
16957;SDS011;8595;52.542;11.974;2023-04-25T13:25:56;12.23;;;4.20;;
16957;SDS011;8595;52.542;11.974;2023-04-25T13:28:24;10.77;;;4.05;;
16957;SDS011;8595;52.542;11.974;2023-04-25T13:30:52;8.25;;;3.97;;
16957;SDS011;8595;52.542;11.974;2023-04-25T13:33:19;15.85;;;7.47;;
16957;SDS011;8595;52.542;11.974;2023-04-25T13:35:47;12.18;;;7.03;;
16957;SDS011;8595;52.542;11.974;2023-04-25T13:38:19;12.65;;;4.80;;
16957;SDS011;8595;52.542;11.974;2023-04-25T13:40:47;9.27;;;3.78;;
16957;SDS011;8595;52.542;11.974;2023-04-25T13:43:14;9.20;;;3.47;;
16957;SDS011;8595;52.542;11.974;2023-04-25T13:45:41;10.73;;;2.90;;
16957;SDS011;8595;52.542;11.974;2023-04-25T13:48:09;12.70;;;3.50;;
16957;SDS011;8595;52.542;11.974;2023-04-25T13:50:36;13.25;;;5.80;;
16957;SDS011;8595;52.542;11.974;2023-04-25T13:53:03;9.73;;;3.50;;
16957;SDS011;8595;52.542;11.974;2023-04-25T13:55:31;8.70;;;3.28;;
16957;SDS011;8595;52.542;11.974;2023-04-25T13:58:00;4.82;;;2.65;;
16957;SDS011;8595;52.542;11.974;2023-04-25T14:00:32;5.78;;;2.40;;
16957;SDS011;8595;52.542;11.974;2023-04-25T14:03:03;7.80;;;2.60;;
16957;SDS011;8595;52.542;11.974;2023-04-25T14:05:33;5.25;;;2.38;;
16957;SDS011;8595;52.542;11.974;2023-04-25T14:08:03;10.23;;;2.80;;
16957;SDS011;8595;52.542;11.974;2023-04-25T14:10:31;4.55;;;2.50;;
16957;SDS011;8595;52.542;11.974;2023-04-25T14:12:59;4.65;;;2.22;;
16957;SDS011;8595;52.542;11.974;2023-04-25T14:15:27;11.00;;;4.05;;
16957;SDS011;8595;52.542;11.974;2023-04-25T14:17:55;6.53;;;2.42;;
16957;SDS011;8595;52.542;11.974;2023-04-25T14:20:22;6.47;;;2.70;;
16957;SDS011;8595;52.542;11.974;2023-04-25T14:22:50;6.55;;;2.83;;
16957;SDS011;8595;52.542;11.974;2023-04-25T14:25:19;6.40;;;2.92;;
16957;SDS011;8595;52.542;11.974;2023-04-25T14:27:46;6.82;;;3.00;;
16957;SDS011;8595;52.542;11.974;2023-04-25T14:30:15;5.35;;;2.90;;
16957;SDS011;8595;52.542;11.974;2023-04-25T14:32:42;4.70;;;2.17;;
16957;SDS011;8595;52.542;11.974;2023-04-25T14:35:08;4.95;;;2.13;;
16957;SDS011;8595;52.542;11.974;2023-04-25T14:37:35;7.28;;;2.75;;
16957;SDS011;8595;52.542;11.974;2023-04-25T14:40:05;6.60;;;2.95;;
16957;SDS011;8595;52.542;11.974;2023-04-25T14:42:33;9.55;;;3.00;;
16957;SDS011;8595;52.542;11.974;2023-04-25T14:45:00;6.50;;;2.60;;
16957;SDS011;8595;52.542;11.974;2023-04-25T14:47:27;4.95;;;2.53;;
16957;SDS011;8595;52.542;11.974;2023-04-25T14:49:54;10.23;;;2.97;;